createdAt,value
2018-05-06T00:00:15.448Z,14.70
2018-05-06T00:02:47.804Z,14.70
2018-05-06T00:05:22.101Z,14.70
2018-05-06T00:07:53.157Z,14.70
2018-05-06T00:10:24.624Z,14.60
2018-05-06T00:12:58.124Z,14.60
2018-05-06T00:15:36.585Z,14.60
2018-05-06T00:18:11.679Z,14.60
2018-05-06T00:20:45.711Z,14.60
2018-05-06T00:23:22.071Z,14.60
2018-05-06T00:25:51.367Z,14.60
2018-05-06T00:28:19.891Z,14.60
2018-05-06T00:30:59.472Z,14.60
2018-05-06T00:33:41.811Z,14.60
2018-05-06T00:36:13.778Z,14.60
2018-05-06T00:38:45.008Z,14.60
2018-05-06T00:41:14.032Z,14.60
2018-05-06T00:43:45.743Z,14.60
2018-05-06T00:46:15.524Z,14.50
2018-05-06T00:48:45.273Z,14.50
2018-05-06T00:51:16.283Z,14.50
2018-05-06T00:53:46.479Z,14.40
2018-05-06T00:56:17.038Z,14.40
2018-05-06T00:58:47.184Z,14.40
2018-05-06T01:01:18.003Z,14.40
2018-05-06T01:03:49.368Z,14.40
2018-05-06T01:06:19.624Z,14.40
2018-05-06T01:08:49.761Z,14.40
2018-05-06T01:11:20.493Z,14.40
2018-05-06T01:13:52.029Z,14.40
2018-05-06T01:16:22.728Z,14.40
2018-05-06T01:18:54.872Z,14.40
2018-05-06T01:21:24.024Z,14.40
2018-05-06T01:24:03.549Z,14.40
2018-05-06T01:26:44.921Z,14.40
2018-05-06T01:29:16.076Z,14.40
2018-05-06T01:31:44.449Z,14.40
2018-05-06T01:34:12.852Z,14.40
2018-05-06T01:36:41.317Z,14.40
2018-05-06T01:39:09.729Z,14.40
2018-05-06T01:41:38.120Z,14.40
2018-05-06T01:44:07.265Z,14.40
2018-05-06T01:46:35.844Z,14.40
2018-05-06T01:49:04.220Z,14.40
2018-05-06T01:51:32.604Z,14.30
2018-05-06T01:54:01.009Z,14.30
2018-05-06T01:56:29.388Z,14.30
2018-05-06T01:58:57.797Z,14.30
2018-05-06T02:01:26.952Z,14.20
2018-05-06T02:03:55.516Z,14.10
2018-05-06T02:06:23.894Z,14.10
2018-05-06T02:08:52.273Z,14.10
2018-05-06T02:11:20.675Z,14.00
2018-05-06T02:13:49.134Z,14.00
2018-05-06T02:16:17.549Z,13.90
2018-05-06T02:18:45.928Z,13.90
2018-05-06T02:21:14.349Z,13.80
2018-05-06T02:23:42.720Z,13.80
2018-05-06T02:26:11.104Z,13.80
2018-05-06T02:28:39.561Z,13.70
2018-05-06T02:31:08.700Z,13.70
2018-05-06T02:33:37.097Z,13.70
2018-05-06T02:36:05.485Z,13.70
2018-05-06T02:38:34.042Z,13.70
2018-05-06T02:41:02.418Z,13.60
2018-05-06T02:43:30.804Z,13.60
2018-05-06T02:45:59.213Z,13.60
2018-05-06T02:48:27.590Z,13.50
2018-05-06T02:50:56.001Z,13.50
2018-05-06T02:53:25.149Z,13.50
2018-05-06T02:55:53.525Z,13.50
2018-05-06T02:58:21.928Z,13.40
2018-05-06T03:00:50.305Z,13.40
2018-05-06T03:03:18.704Z,13.40
2018-05-06T03:05:47.857Z,13.40
2018-05-06T03:08:17.358Z,13.30
2018-05-06T03:10:45.749Z,13.40
2018-05-06T03:13:14.122Z,13.30
2018-05-06T03:15:42.522Z,13.30
2018-05-06T03:18:10.900Z,13.30
2018-05-06T03:20:39.300Z,13.30
2018-05-06T03:23:08.445Z,13.30
2018-05-06T03:25:37.027Z,13.30
2018-05-06T03:28:05.407Z,13.20
2018-05-06T03:30:33.788Z,13.20
2018-05-06T03:33:02.191Z,13.20
2018-05-06T03:35:30.574Z,13.20
2018-05-06T03:37:58.976Z,13.10
2018-05-06T03:40:28.118Z,13.00
2018-05-06T03:42:56.689Z,13.00
2018-05-06T03:45:25.064Z,13.00
2018-05-06T03:47:53.441Z,12.90
2018-05-06T03:50:21.848Z,12.90
2018-05-06T03:52:50.227Z,12.80
2018-05-06T03:55:18.615Z,12.80
2018-05-06T03:58:04.773Z,12.80
2018-05-06T04:00:49.932Z,12.80
2018-05-06T04:03:18.304Z,12.80
2018-05-06T04:05:47.939Z,12.70
2018-05-06T04:08:16.316Z,12.70
2018-05-06T04:10:44.688Z,12.70
2018-05-06T04:13:13.092Z,12.70
2018-05-06T04:15:41.468Z,12.70
2018-05-06T04:18:09.874Z,12.60
2018-05-06T04:20:38.251Z,12.70
2018-05-06T04:23:06.994Z,12.70
2018-05-06T04:25:35.373Z,12.70
2018-05-06T04:28:03.744Z,12.70
2018-05-06T04:30:32.153Z,12.70
2018-05-06T04:33:00.538Z,12.70
2018-05-06T04:35:28.940Z,12.70
2018-05-06T04:37:57.309Z,12.70
2018-05-06T04:40:25.744Z,12.80
2018-05-06T04:42:54.127Z,12.80
2018-05-06T04:45:22.506Z,12.80
2018-05-06T04:47:50.969Z,12.90
2018-05-06T04:50:19.305Z,13.00
2018-05-06T04:52:47.750Z,13.00
2018-05-06T04:55:16.125Z,13.10
2018-05-06T04:57:44.686Z,13.10
2018-05-06T05:00:13.060Z,13.20
2018-05-06T05:02:41.432Z,13.30
2018-05-06T05:05:09.844Z,13.30
2018-05-06T05:07:38.213Z,13.30
2018-05-06T05:10:07.012Z,13.40
2018-05-06T05:12:35.384Z,13.40
2018-05-06T05:15:03.802Z,13.50
2018-05-06T05:17:32.184Z,13.50
2018-05-06T05:20:00.564Z,13.60
2018-05-06T05:22:30.473Z,13.70
2018-05-06T05:24:58.848Z,13.70
2018-05-06T05:27:27.245Z,13.80
2018-05-06T05:29:56.389Z,13.90
2018-05-06T05:32:24.964Z,13.90
2018-05-06T05:34:53.339Z,13.90
2018-05-06T05:37:21.713Z,14.00
2018-05-06T05:39:50.159Z,14.10
2018-05-06T05:42:19.297Z,14.20
2018-05-06T05:44:47.695Z,14.10
2018-05-06T05:47:16.079Z,14.20
2018-05-06T05:49:44.636Z,14.30
2018-05-06T05:52:13.191Z,14.40
2018-05-06T05:54:41.696Z,14.50
2018-05-06T05:57:10.097Z,14.50
2018-05-06T05:59:38.521Z,14.60
2018-05-06T06:02:07.690Z,14.70
2018-05-06T06:04:36.059Z,14.60
2018-05-06T06:07:04.480Z,14.70
2018-05-06T06:09:33.632Z,14.80
2018-05-06T06:12:02.015Z,14.80
2018-05-06T06:14:30.429Z,14.90
2018-05-06T06:16:59.576Z,15.10
2018-05-06T06:19:27.981Z,15.00
2018-05-06T06:21:56.357Z,15.10
2018-05-06T06:24:24.788Z,15.10
2018-05-06T06:26:53.164Z,15.20
2018-05-06T06:29:21.542Z,15.30
2018-05-06T06:31:49.944Z,15.40
2018-05-06T06:34:18.327Z,15.60
2018-05-06T06:36:46.729Z,15.60
2018-05-06T06:39:15.109Z,15.70
2018-05-06T06:41:43.857Z,15.80
2018-05-06T06:44:12.232Z,15.90
2018-05-06T06:46:40.609Z,16.10
2018-05-06T06:49:09.009Z,16.10
2018-05-06T06:51:37.386Z,16.30
2018-05-06T06:54:05.833Z,16.50
2018-05-06T06:56:34.217Z,16.50
2018-05-06T06:59:02.812Z,16.60
2018-05-06T07:01:31.192Z,16.80
2018-05-06T07:03:59.588Z,16.90
2018-05-06T07:06:28.009Z,16.90
2018-05-06T07:08:57.220Z,17.00
2018-05-06T07:11:25.644Z,17.00
2018-05-06T07:13:54.033Z,17.10
2018-05-06T07:16:22.629Z,17.20
2018-05-06T07:18:51.008Z,17.40
2018-05-06T07:21:19.389Z,17.60
2018-05-06T07:23:47.796Z,17.80
2018-05-06T07:26:16.176Z,17.90
2018-05-06T07:28:44.593Z,18.10
2018-05-06T07:31:12.981Z,18.40
2018-05-06T07:33:41.395Z,18.50
2018-05-06T07:36:10.547Z,19.00
2018-05-06T07:38:38.935Z,19.00
2018-05-06T07:41:07.351Z,19.20
2018-05-06T07:43:36.497Z,19.50
2018-05-06T07:46:04.889Z,19.50
2018-05-06T07:48:33.274Z,19.70
2018-05-06T07:51:02.039Z,20.00
2018-05-06T07:53:30.420Z,20.20
2018-05-06T07:55:58.792Z,20.40
2018-05-06T07:58:27.267Z,20.60
2018-05-06T08:00:55.667Z,20.80
2018-05-06T08:03:24.147Z,21.00
2018-05-06T08:05:53.330Z,21.60
2018-05-06T08:08:22.026Z,21.50
2018-05-06T08:10:50.484Z,21.70
2018-05-06T08:13:18.817Z,21.80
2018-05-06T08:15:47.990Z,22.20
2018-05-06T08:18:16.369Z,22.10
2018-05-06T08:20:44.777Z,22.30
2018-05-06T08:23:13.153Z,22.40
2018-05-06T08:25:42.611Z,22.90
2018-05-06T08:28:10.994Z,22.80
2018-05-06T08:30:39.382Z,23.10
2018-05-06T08:33:07.793Z,23.20
2018-05-06T08:35:36.937Z,23.70
2018-05-06T08:38:05.338Z,23.70
2018-05-06T08:40:33.730Z,24.10
2018-05-06T08:43:02.314Z,24.30
2018-05-06T08:45:30.778Z,24.50
2018-05-06T08:47:59.156Z,24.80
2018-05-06T08:50:27.565Z,25.20
2018-05-06T08:52:56.788Z,25.30
2018-05-06T08:55:25.224Z,25.30
2018-05-06T08:57:53.602Z,25.60
2018-05-06T09:00:22.071Z,25.70
2018-05-06T09:02:50.465Z,26.00
2018-05-06T09:05:18.833Z,26.20
2018-05-06T09:07:47.310Z,26.20
2018-05-06T09:10:15.688Z,26.30
2018-05-06T09:12:44.114Z,26.40
2018-05-06T09:15:13.265Z,26.90
2018-05-06T09:17:41.933Z,26.90
2018-05-06T09:20:10.297Z,27.20
2018-05-06T09:22:38.664Z,27.50
2018-05-06T09:25:07.825Z,27.70
2018-05-06T09:27:36.193Z,27.60
2018-05-06T09:30:04.596Z,27.70
2018-05-06T09:32:34.011Z,27.90
2018-05-06T09:35:03.216Z,28.30
2018-05-06T09:37:32.357Z,28.30
2018-05-06T09:40:00.730Z,28.30
2018-05-06T09:42:29.136Z,28.30
2018-05-06T09:44:57.515Z,28.40
2018-05-06T09:47:25.909Z,28.60
2018-05-06T09:49:55.072Z,29.10
2018-05-06T09:52:29.091Z,29.10
2018-05-06T09:55:13.251Z,29.60
2018-05-06T09:57:52.894Z,29.60
2018-05-06T10:00:21.764Z,29.90
2018-05-06T10:02:51.961Z,30.10
2018-05-06T10:05:22.479Z,30.20
2018-05-06T10:07:53.043Z,30.30
2018-05-06T10:10:23.561Z,30.30
2018-05-06T10:12:55.565Z,30.60
2018-05-06T10:15:25.948Z,30.90
2018-05-06T10:17:59.685Z,31.00
2018-05-06T10:20:31.933Z,30.90
2018-05-06T10:23:02.906Z,31.00
2018-05-06T10:25:34.466Z,31.00
2018-05-06T10:28:03.634Z,31.10
2018-05-06T10:30:34.943Z,31.20
2018-05-06T10:33:04.882Z,31.40
2018-05-06T10:35:35.088Z,31.40
2018-05-06T10:38:13.513Z,31.40
2018-05-06T10:40:42.360Z,31.60
2018-05-06T10:43:11.221Z,31.90
2018-05-06T10:45:45.122Z,32.30
2018-05-06T10:48:22.390Z,32.50
2018-05-06T10:50:50.968Z,32.50
2018-05-06T10:53:19.357Z,32.20
2018-05-06T10:55:47.760Z,32.20
2018-05-06T10:58:16.966Z,32.00
2018-05-06T11:00:46.148Z,32.40
2018-05-06T11:03:15.356Z,32.80
2018-05-06T11:05:44.518Z,32.80
2018-05-06T11:08:12.893Z,32.70
2018-05-06T11:10:41.463Z,32.80
2018-05-06T11:13:09.849Z,32.60
2018-05-06T11:15:38.275Z,32.50
2018-05-06T11:18:07.436Z,32.20
2018-05-06T11:20:36.479Z,32.20
2018-05-06T11:23:04.867Z,32.20
2018-05-06T11:25:33.240Z,32.40
2018-05-06T11:28:01.649Z,32.80
2018-05-06T11:30:30.028Z,33.00
2018-05-06T11:33:08.320Z,32.90
2018-05-06T11:35:41.036Z,32.90
2018-05-06T11:38:15.495Z,33.10
2018-05-06T11:40:47.776Z,33.50
2018-05-06T11:43:18.216Z,34.00
2018-05-06T11:45:46.920Z,34.40
2018-05-06T11:48:16.596Z,34.20
2018-05-06T11:50:45.012Z,34.00
2018-05-06T11:53:13.429Z,33.90
2018-05-06T11:55:42.225Z,33.40
2018-05-06T11:58:11.364Z,33.30
2018-05-06T12:00:39.794Z,33.30
2018-05-06T12:03:08.179Z,33.60
2018-05-06T12:05:37.600Z,33.30
2018-05-06T12:08:06.034Z,33.30
2018-05-06T12:10:34.499Z,33.60
2018-05-06T12:13:04.362Z,33.60
2018-05-06T12:15:33.522Z,33.50
2018-05-06T12:18:01.929Z,33.50
2018-05-06T12:20:31.591Z,33.40
2018-05-06T12:22:59.974Z,33.40
2018-05-06T12:25:29.402Z,33.40
2018-05-06T12:27:57.901Z,33.40
2018-05-06T12:30:27.133Z,33.30
2018-05-06T12:32:55.584Z,33.30
2018-05-06T12:35:24.260Z,33.40
2018-05-06T12:37:52.652Z,33.30
2018-05-06T12:40:21.828Z,33.00
2018-05-06T12:42:50.848Z,33.00
2018-05-06T12:45:20.211Z,33.10
2018-05-06T12:47:49.879Z,33.10
2018-05-06T12:50:19.038Z,33.00
2018-05-06T12:52:49.081Z,32.30
2018-05-06T12:55:18.183Z,32.30
2018-05-06T12:57:46.690Z,32.10
2018-05-06T13:00:16.011Z,32.50
2018-05-06T13:02:44.399Z,32.40
2018-05-06T13:05:12.797Z,33.20
2018-05-06T13:07:41.928Z,34.10
2018-05-06T13:10:10.475Z,34.10
2018-05-06T13:12:38.906Z,34.30
2018-05-06T13:15:07.305Z,34.20
2018-05-06T13:17:35.771Z,34.00
2018-05-06T13:20:04.968Z,34.60
2018-05-06T13:22:33.373Z,34.60
2018-05-06T13:25:01.750Z,34.80
2018-05-06T13:27:30.997Z,34.90
2018-05-06T13:30:00.073Z,34.70
2018-05-06T13:32:29.231Z,34.80
2018-05-06T13:34:57.641Z,34.80
2018-05-06T13:37:26.781Z,34.90
2018-05-06T13:39:55.184Z,34.90
2018-05-06T13:42:23.557Z,35.20
2018-05-06T13:44:51.957Z,35.30
2018-05-06T13:47:20.360Z,35.30
2018-05-06T13:49:48.824Z,34.90
2018-05-06T13:52:18.209Z,34.30
2018-05-06T13:54:48.091Z,34.10
2018-05-06T13:57:18.975Z,34.10
2018-05-06T13:59:47.377Z,34.10
2018-05-06T14:02:15.830Z,34.30
2018-05-06T14:04:44.601Z,33.80
2018-05-06T14:07:13.275Z,33.60
2018-05-06T14:09:43.589Z,33.20
2018-05-06T14:12:12.388Z,32.80
2018-05-06T14:14:41.113Z,32.00
2018-05-06T14:17:10.249Z,30.30
2018-05-06T14:19:39.988Z,30.30
2018-05-06T14:22:08.372Z,29.50
2018-05-06T14:24:38.272Z,28.30
2018-05-06T14:27:06.758Z,28.20
2018-05-06T14:29:35.861Z,27.90
2018-05-06T14:32:04.269Z,27.60
2018-05-06T14:34:33.538Z,27.20
2018-05-06T14:37:01.955Z,27.20
2018-05-06T14:39:31.116Z,27.00
2018-05-06T14:41:59.903Z,27.00
2018-05-06T14:44:29.176Z,26.90
2018-05-06T14:47:15.639Z,26.70
2018-05-06T14:49:44.982Z,26.30
2018-05-06T14:52:13.385Z,26.20
2018-05-06T14:54:41.949Z,26.10
2018-05-06T14:57:10.391Z,26.10
2018-05-06T14:59:38.788Z,26.00
2018-05-06T15:02:07.530Z,26.00
2018-05-06T15:04:36.352Z,25.80
2018-05-06T15:07:04.741Z,25.60
2018-05-06T15:09:33.109Z,25.50
2018-05-06T15:12:01.577Z,25.30
2018-05-06T15:14:38.248Z,25.20
2018-05-06T15:17:06.951Z,25.00
2018-05-06T15:19:35.527Z,24.90
2018-05-06T15:22:03.936Z,24.80
2018-05-06T15:24:32.317Z,24.80
2018-05-06T15:27:00.724Z,24.70
2018-05-06T15:29:32.049Z,24.70
2018-05-06T15:32:00.727Z,24.70
2018-05-06T15:34:29.100Z,24.70
2018-05-06T15:36:57.569Z,24.60
2018-05-06T15:39:26.326Z,24.60
2018-05-06T15:41:55.659Z,24.40
2018-05-06T15:44:24.151Z,24.40
2018-05-06T15:46:52.565Z,24.30
2018-05-06T15:49:21.106Z,24.30
2018-05-06T15:51:49.493Z,24.20
2018-05-06T15:54:17.860Z,24.10
2018-05-06T15:56:46.244Z,24.00
2018-05-06T15:59:14.615Z,23.90
2018-05-06T16:01:43.534Z,23.90
2018-05-06T16:04:16.836Z,23.90
2018-05-06T16:06:46.017Z,23.70
2018-05-06T16:09:14.397Z,23.70
2018-05-06T16:11:42.836Z,23.60
2018-05-06T16:14:11.204Z,23.40
2018-05-06T16:16:40.911Z,23.20
2018-05-06T16:19:09.321Z,23.10
2018-05-06T16:21:38.972Z,23.00
2018-05-06T16:24:07.505Z,22.90
2018-05-06T16:26:35.947Z,22.80
2018-05-06T16:29:05.387Z,22.80
2018-05-06T16:31:34.573Z,22.80
2018-05-06T16:34:03.136Z,22.60
2018-05-06T16:36:32.301Z,22.50
2018-05-06T16:39:00.676Z,22.50
2018-05-06T16:41:29.064Z,22.50
2018-05-06T16:43:57.442Z,22.50
2018-05-06T16:46:26.099Z,22.40
2018-05-06T16:48:54.498Z,22.40
2018-05-06T16:51:22.885Z,22.30
2018-05-06T16:53:52.057Z,22.30
2018-05-06T16:56:20.540Z,22.30
2018-05-06T16:58:48.950Z,22.30
2018-05-06T17:01:17.327Z,22.20
2018-05-06T17:03:46.713Z,22.10
2018-05-06T17:06:15.653Z,22.10
2018-05-06T17:08:44.024Z,22.10
2018-05-06T17:11:13.197Z,22.10
2018-05-06T17:13:41.566Z,22.00
2018-05-06T17:16:09.969Z,22.00
2018-05-06T17:18:39.149Z,21.90
2018-05-06T17:21:07.834Z,21.90
2018-05-06T17:23:37.034Z,21.80
2018-05-06T17:26:05.411Z,21.80
2018-05-06T17:28:33.809Z,21.70
2018-05-06T17:31:02.948Z,21.60
2018-05-06T17:33:31.359Z,21.60
2018-05-06T17:35:59.802Z,21.60
2018-05-06T17:38:28.381Z,21.50
2018-05-06T17:40:56.757Z,21.50
2018-05-06T17:43:25.125Z,21.40
2018-05-06T17:45:53.638Z,21.40
2018-05-06T17:48:23.102Z,21.20
2018-05-06T17:50:51.492Z,21.20
2018-05-06T17:53:19.871Z,21.20
2018-05-06T17:55:48.509Z,21.10
2018-05-06T17:58:16.935Z,21.10
2018-05-06T18:00:45.314Z,21.00
2018-05-06T18:03:13.713Z,20.90
2018-05-06T18:05:42.569Z,20.90
2018-05-06T18:08:10.969Z,20.70
2018-05-06T18:10:39.364Z,20.70
2018-05-06T18:13:21.722Z,20.60
2018-05-06T18:16:05.713Z,20.50
2018-05-06T18:18:53.876Z,20.40
2018-05-06T18:21:32.369Z,20.30
2018-05-06T18:24:01.072Z,20.20
2018-05-06T18:26:29.445Z,20.10
2018-05-06T18:28:58.358Z,20.10
2018-05-06T18:31:27.832Z,19.90
2018-05-06T18:33:58.954Z,19.80
2018-05-06T18:36:27.776Z,19.70
2018-05-06T18:38:56.867Z,19.60
2018-05-06T18:41:26.364Z,19.60
2018-05-06T18:43:55.753Z,19.50
2018-05-06T18:46:24.678Z,19.30
2018-05-06T18:48:53.841Z,19.30
2018-05-06T18:51:23.706Z,19.20
2018-05-06T18:53:53.285Z,18.90
2018-05-06T18:56:22.693Z,18.90
2018-05-06T18:58:54.142Z,18.80
2018-05-06T19:01:27.798Z,18.70
2018-05-06T19:03:57.817Z,18.60
2018-05-06T19:06:28.566Z,18.50
2018-05-06T19:08:59.748Z,18.40
2018-05-06T19:11:32.806Z,18.20
2018-05-06T19:14:04.233Z,18.10
2018-05-06T19:16:34.937Z,18.10
2018-05-06T19:19:05.131Z,18.00
2018-05-06T19:21:36.099Z,17.90
2018-05-06T19:24:05.767Z,17.80
2018-05-06T19:26:36.658Z,17.60
2018-05-06T19:29:05.957Z,17.60
2018-05-06T19:31:35.637Z,17.50
2018-05-06T19:34:05.392Z,17.40
2018-05-06T19:36:34.915Z,17.40
2018-05-06T19:39:07.366Z,17.30
2018-05-06T19:41:38.280Z,17.20
2018-05-06T19:44:08.033Z,17.20
2018-05-06T19:46:37.631Z,17.00
2018-05-06T19:49:07.009Z,17.00
2018-05-06T19:51:36.987Z,17.00
2018-05-06T19:54:07.903Z,16.90
2018-05-06T19:56:37.570Z,16.90
2018-05-06T19:59:07.936Z,16.80
2018-05-06T20:01:37.748Z,16.80
2018-05-06T20:04:08.215Z,16.70
2018-05-06T20:06:37.983Z,16.70
2018-05-06T20:09:07.372Z,16.60
2018-05-06T20:11:37.099Z,16.60
2018-05-06T20:14:07.403Z,16.50
2018-05-06T20:16:36.711Z,16.50
2018-05-06T20:19:07.838Z,16.50
2018-05-06T20:21:37.407Z,16.40
2018-05-06T20:24:07.153Z,16.40
2018-05-06T20:26:37.242Z,16.30
2018-05-06T20:29:08.851Z,16.20
2018-05-06T20:31:42.311Z,16.20
2018-05-06T20:34:13.737Z,16.20
2018-05-06T20:36:49.023Z,16.20
2018-05-06T20:39:22.392Z,16.10
2018-05-06T20:41:52.298Z,16.10
2018-05-06T20:44:20.717Z,16.20
2018-05-06T20:46:49.508Z,16.10
2018-05-06T20:49:17.903Z,16.10
2018-05-06T20:51:49.375Z,16.10
2018-05-06T20:54:20.864Z,16.00
2018-05-06T20:56:51.095Z,16.00
2018-05-06T20:59:19.522Z,15.90
2018-05-06T21:01:49.573Z,15.90
2018-05-06T21:04:19.161Z,15.90
2018-05-06T21:06:50.141Z,15.90
2018-05-06T21:09:21.720Z,15.90
2018-05-06T21:11:52.377Z,15.80
2018-05-06T21:14:23.853Z,15.70
2018-05-06T21:16:54.077Z,15.80
2018-05-06T21:19:22.911Z,15.70
2018-05-06T21:21:51.596Z,15.70
2018-05-06T21:24:20.362Z,15.70
2018-05-06T21:26:49.052Z,15.70
2018-05-06T21:29:17.692Z,15.60
2018-05-06T21:31:47.193Z,15.60
2018-05-06T21:34:16.797Z,15.50
2018-05-06T21:36:45.593Z,15.50
2018-05-06T21:39:14.174Z,15.50
2018-05-06T21:41:43.187Z,15.50
2018-05-06T21:44:12.099Z,15.40
2018-05-06T21:46:40.779Z,15.40
2018-05-06T21:49:09.614Z,15.30
2018-05-06T21:51:39.536Z,15.30
2018-05-06T21:54:08.939Z,15.30
2018-05-06T21:56:38.789Z,15.30
2018-05-06T21:59:07.648Z,15.30
2018-05-06T22:01:36.526Z,15.20
2018-05-06T22:04:05.181Z,15.20
2018-05-06T22:06:33.992Z,15.20
2018-05-06T22:09:02.709Z,15.30
2018-05-06T22:11:32.170Z,15.20
2018-05-06T22:14:00.833Z,15.20
2018-05-06T22:16:29.560Z,15.20
2018-05-06T22:18:58.426Z,15.10
2018-05-06T22:21:27.158Z,15.10
2018-05-06T22:23:56.541Z,15.00
2018-05-06T22:26:25.177Z,15.00
2018-05-06T22:28:54.575Z,15.00
2018-05-06T22:31:23.623Z,14.90
2018-05-06T22:33:52.369Z,14.90
2018-05-06T22:36:20.989Z,14.90
2018-05-06T22:38:50.604Z,14.80
2018-05-06T22:41:19.252Z,14.80
2018-05-06T22:43:47.982Z,14.70
2018-05-06T22:46:17.323Z,14.70
2018-05-06T22:48:46.395Z,14.70
2018-05-06T22:51:15.832Z,14.60
2018-05-06T22:53:44.550Z,14.60
2018-05-06T22:56:13.352Z,14.50
2018-05-06T22:58:41.999Z,14.50
2018-05-06T23:01:10.502Z,14.50
2018-05-06T23:03:39.231Z,14.40
2018-05-06T23:06:07.879Z,14.40
2018-05-06T23:08:36.695Z,14.40
2018-05-06T23:11:09.519Z,14.30
2018-05-06T23:13:38.092Z,14.30
2018-05-06T23:16:06.749Z,14.30
2018-05-06T23:18:36.327Z,14.20
2018-05-06T23:21:05.000Z,14.20
2018-05-06T23:23:33.727Z,14.20
2018-05-06T23:26:03.137Z,14.10
2018-05-06T23:28:31.990Z,14.10
2018-05-06T23:31:00.682Z,14.10
2018-05-06T23:33:30.974Z,14.10
2018-05-06T23:35:59.793Z,14.10
2018-05-06T23:38:28.453Z,14.00
2018-05-06T23:40:57.243Z,14.00
2018-05-06T23:43:25.980Z,13.90
2018-05-06T23:45:55.709Z,13.90
2018-05-06T23:48:25.335Z,13.80
2018-05-06T23:51:03.235Z,13.80
2018-05-06T23:53:46.740Z,13.80
2018-05-06T23:56:29.614Z,13.70
2018-05-06T23:59:16.174Z,13.70
